createdAt,value
2023-12-04T00:01:52.101Z,99561.16
2023-12-04T00:04:18.674Z,99554.25
2023-12-04T00:06:45.599Z,99549.09
2023-12-04T00:09:12.266Z,99541.31
2023-12-04T00:11:38.861Z,99538.13
2023-12-04T00:14:05.515Z,99535.72
2023-12-04T00:16:35.573Z,99545.88
2023-12-04T00:19:02.280Z,99538.13
2023-12-04T00:21:28.942Z,99529.44
2023-12-04T00:23:55.535Z,99510.56
2023-12-04T00:26:22.096Z,99520.03
2023-12-04T00:28:48.671Z,99509.66
2023-12-04T00:31:15.337Z,99510.50
2023-12-04T00:33:42.059Z,99498.28
2023-12-04T00:36:09.341Z,99490.63
2023-12-04T00:38:36.090Z,99497.44
2023-12-04T00:41:02.614Z,99490.66
2023-12-04T00:43:29.236Z,99470.28
2023-12-04T00:45:55.762Z,99475.16
2023-12-04T00:48:22.409Z,99492.41
2023-12-04T00:50:49.337Z,99480.50
2023-12-04T00:53:15.899Z,99485.72
2023-12-04T00:55:42.579Z,99490.00
2023-12-04T00:58:09.268Z,99468.72
2023-12-04T01:00:35.864Z,99485.63
2023-12-04T01:03:02.527Z,99471.84
2023-12-04T01:05:29.116Z,99469.25
2023-12-04T01:07:56.763Z,99458.44
2023-12-04T01:10:23.838Z,99470.09
2023-12-04T01:12:50.415Z,99457.41
2023-12-04T01:15:17.194Z,99451.66
2023-12-04T01:17:43.812Z,99476.38
2023-12-04T01:20:10.765Z,99453.44
2023-12-04T01:22:37.621Z,99467.16
2023-12-04T01:25:04.635Z,99469.53
2023-12-04T01:27:31.237Z,99466.06
2023-12-04T01:29:57.867Z,99454.97
2023-12-04T01:32:24.469Z,99456.72
2023-12-04T01:34:51.086Z,99462.72
2023-12-04T01:37:17.603Z,99448.19
2023-12-04T01:39:44.270Z,99442.44
2023-12-04T01:42:11.811Z,99452.41
2023-12-04T01:44:38.407Z,99449.09
2023-12-04T01:47:05.560Z,99442.91
2023-12-04T01:49:32.421Z,99445.59
2023-12-04T01:51:59.186Z,99437.88
2023-12-04T01:54:26.442Z,99436.31
2023-12-04T01:56:53.137Z,99451.75
2023-12-04T01:59:19.850Z,99445.75
2023-12-04T02:01:46.548Z,99426.31
2023-12-04T02:04:13.351Z,99438.06
2023-12-04T02:06:41.890Z,99429.41
2023-12-04T02:09:13.034Z,99422.41
2023-12-04T02:11:40.359Z,99429.31
2023-12-04T02:14:07.537Z,99418.25
2023-12-04T02:16:39.836Z,99420.72
2023-12-04T02:19:08.728Z,99420.91
2023-12-04T02:21:35.361Z,99427.75
2023-12-04T02:24:01.991Z,99420.13
2023-12-04T02:26:33.363Z,99407.09
2023-12-04T02:29:06.254Z,99404.66
2023-12-04T02:31:35.494Z,99383.28
2023-12-04T02:34:05.063Z,99404.47
2023-12-04T02:36:32.319Z,99395.16
2023-12-04T02:38:59.378Z,99398.53
2023-12-04T02:41:25.933Z,99388.22
2023-12-04T02:43:52.461Z,99391.63
2023-12-04T02:46:19.025Z,99386.41
2023-12-04T02:48:45.818Z,99391.75
2023-12-04T02:51:12.501Z,99379.75
2023-12-04T02:53:39.014Z,99389.06
2023-12-04T02:56:06.101Z,99384.88
2023-12-04T02:58:35.159Z,99383.09
2023-12-04T03:01:01.774Z,99371.94
2023-12-04T03:03:28.339Z,99361.63
2023-12-04T03:05:55.053Z,99363.34
2023-12-04T03:08:21.598Z,99353.78
2023-12-04T03:10:48.165Z,99349.50
2023-12-04T03:13:14.700Z,99335.75
2023-12-04T03:15:41.420Z,99352.06
2023-12-04T03:18:09.324Z,99340.09
2023-12-04T03:20:37.528Z,99333.94
2023-12-04T03:23:04.110Z,99333.09
2023-12-04T03:25:30.650Z,99321.84
2023-12-04T03:27:57.697Z,99319.38
2023-12-04T03:30:24.212Z,99319.34
2023-12-04T03:32:50.862Z,99323.91
2023-12-04T03:35:17.437Z,99296.50
2023-12-04T03:37:43.923Z,99315.16
2023-12-04T03:40:11.025Z,99293.06
2023-12-04T03:42:37.684Z,99303.88
2023-12-04T03:45:05.122Z,99298.59
2023-12-04T03:47:31.670Z,99305.56
2023-12-04T03:49:58.460Z,99282.22
2023-12-04T03:52:24.978Z,99267.63
2023-12-04T03:54:52.072Z,99265.81
2023-12-04T03:57:18.641Z,99260.72
2023-12-04T03:59:46.126Z,99259.69
2023-12-04T04:02:12.985Z,99233.38
2023-12-04T04:04:39.504Z,99257.19
2023-12-04T04:07:06.765Z,99265.09
2023-12-04T04:09:33.405Z,99261.66
2023-12-04T04:11:59.983Z,99257.47
2023-12-04T04:14:26.531Z,99253.13
2023-12-04T04:16:53.076Z,99257.31
2023-12-04T04:19:19.655Z,99257.47
2023-12-04T04:21:46.319Z,99249.78
2023-12-04T04:24:12.887Z,99261.00
2023-12-04T04:26:39.460Z,99261.78
2023-12-04T04:29:06.273Z,99257.59
2023-12-04T04:31:32.930Z,99253.31
2023-12-04T04:33:59.567Z,99261.00
2023-12-04T04:36:26.196Z,99254.06
2023-12-04T04:38:52.750Z,99246.66
2023-12-04T04:41:19.394Z,99254.22
2023-12-04T04:43:45.983Z,99250.75
2023-12-04T04:46:12.537Z,99252.50
2023-12-04T04:48:39.274Z,99241.63
2023-12-04T04:51:05.904Z,99261.19
2023-12-04T04:53:32.502Z,99249.38
2023-12-04T04:55:59.202Z,99259.47
2023-12-04T04:58:25.818Z,99257.16
2023-12-04T05:00:52.462Z,99245.16
2023-12-04T05:03:19.109Z,99260.59
2023-12-04T05:05:45.821Z,99263.13
2023-12-04T05:08:12.441Z,99256.31
2023-12-04T05:10:40.417Z,99234.03
2023-12-04T05:13:06.982Z,99245.88
2023-12-04T05:15:33.630Z,99214.34
2023-12-04T05:18:00.325Z,99241.63
2023-12-04T05:20:27.546Z,99233.03
2023-12-04T05:22:54.059Z,99229.44
2023-12-04T05:25:20.885Z,99207.44
2023-12-04T05:27:49.017Z,99215.78
2023-12-04T05:30:16.925Z,99203.78
2023-12-04T05:32:43.702Z,99209.66
2023-12-04T05:35:10.330Z,99201.97
2023-12-04T05:37:37.008Z,99205.28
2023-12-04T05:40:05.104Z,99202.88
2023-12-04T05:42:31.875Z,99203.59
2023-12-04T05:44:59.117Z,99202.81
2023-12-04T05:47:25.691Z,99196.91
2023-12-04T05:49:52.297Z,99208.88
2023-12-04T05:52:19.014Z,99198.81
2023-12-04T05:54:45.574Z,99191.28
2023-12-04T05:57:12.263Z,99203.91
2023-12-04T05:59:38.915Z,99175.78
2023-12-04T06:02:05.548Z,99200.38
2023-12-04T06:04:32.295Z,99172.41
2023-12-04T06:06:58.867Z,99179.41
2023-12-04T06:09:25.469Z,99190.44
2023-12-04T06:11:52.009Z,99190.25
2023-12-04T06:14:18.499Z,99191.88
2023-12-04T06:16:45.035Z,99202.34
2023-12-04T06:19:11.690Z,99200.66
2023-12-04T06:21:38.292Z,99206.63
2023-12-04T06:24:08.114Z,99203.34
2023-12-04T06:26:37.446Z,99212.00
2023-12-04T06:29:04.304Z,99208.59
2023-12-04T06:31:31.187Z,99193.28
2023-12-04T06:33:58.055Z,99202.75
2023-12-04T06:36:26.671Z,99216.41
2023-12-04T06:38:54.258Z,99200.25
2023-12-04T06:41:22.548Z,99200.13
2023-12-04T06:43:52.477Z,99200.13
2023-12-04T06:46:22.165Z,99196.75
2023-12-04T06:48:49.710Z,99194.94
2023-12-04T06:51:16.421Z,99197.53
2023-12-04T06:53:42.954Z,99190.00
2023-12-04T06:56:10.211Z,99189.06
2023-12-04T06:58:36.733Z,99190.84
2023-12-04T07:01:03.534Z,99183.91
2023-12-04T07:03:30.266Z,99170.97
2023-12-04T07:05:56.883Z,99169.28
2023-12-04T07:08:23.477Z,99170.84
2023-12-04T07:10:50.084Z,99145.44
2023-12-04T07:13:17.378Z,99159.56
2023-12-04T07:15:44.113Z,99165.63
2023-12-04T07:18:10.771Z,99159.69
2023-12-04T07:20:37.315Z,99128.19
2023-12-04T07:23:03.803Z,99144.28
2023-12-04T07:25:30.394Z,99143.34
2023-12-04T07:27:59.156Z,99137.22
2023-12-04T07:30:26.468Z,99120.13
2023-12-04T07:32:54.600Z,99123.38
2023-12-04T07:35:21.184Z,99123.56
2023-12-04T07:37:47.804Z,99126.03
2023-12-04T07:40:14.458Z,99132.09
2023-12-04T07:42:41.094Z,99129.56
2023-12-04T07:45:08.405Z,99122.63
2023-12-04T07:47:34.933Z,99116.59
2023-12-04T07:50:01.519Z,99098.13
2023-12-04T07:52:28.095Z,99107.22
2023-12-04T07:54:55.208Z,99117.50
2023-12-04T07:57:21.795Z,99109.97
2023-12-04T07:59:50.921Z,99097.72
2023-12-04T08:02:18.702Z,99103.78
2023-12-04T08:04:45.273Z,99105.63
2023-12-04T08:07:12.572Z,99104.56
2023-12-04T08:09:39.167Z,99102.09
2023-12-04T08:12:05.994Z,99085.66
2023-12-04T08:14:33.821Z,99093.47
2023-12-04T08:17:00.431Z,99054.06
2023-12-04T08:19:27.079Z,99088.22
2023-12-04T08:21:53.670Z,99083.16
2023-12-04T08:24:20.324Z,99062.25
2023-12-04T08:26:47.068Z,99045.53
2023-12-04T08:29:14.097Z,99113.47
2023-12-04T08:31:40.682Z,99107.53
2023-12-04T08:34:07.242Z,99098.13
2023-12-04T08:36:44.933Z,99082.41
2023-12-04T08:39:13.817Z,99066.41
2023-12-04T08:41:45.428Z,99057.81
2023-12-04T08:44:17.203Z,99048.25
2023-12-04T08:46:45.374Z,99059.13
2023-12-04T08:49:12.028Z,99063.44
2023-12-04T08:51:38.778Z,99076.44
2023-12-04T08:54:17.661Z,99068.75
2023-12-04T08:56:45.686Z,99073.84
2023-12-04T08:59:14.022Z,99062.63
2023-12-04T09:01:41.202Z,99059.19
2023-12-04T09:04:09.583Z,99079.91
2023-12-04T09:09:09.952Z,99060.03
2023-12-04T09:11:45.161Z,99032.84
2023-12-04T09:14:12.241Z,99054.19
2023-12-04T09:16:38.961Z,99052.63
2023-12-04T09:19:05.986Z,99068.84
2023-12-04T09:21:32.887Z,99061.06
2023-12-04T09:23:59.569Z,99070.56
2023-12-04T09:26:26.224Z,99077.63
2023-12-04T09:28:53.331Z,99060.75
2023-12-04T09:31:20.479Z,99088.78
2023-12-04T09:33:48.328Z,99073.16
2023-12-04T09:36:14.968Z,99083.75
2023-12-04T09:38:41.567Z,99074.28
2023-12-04T09:41:11.713Z,99075.84
2023-12-04T09:43:39.175Z,99050.94
2023-12-04T09:46:06.514Z,99064.59
2023-12-04T09:48:33.980Z,99060.31
2023-12-04T09:51:01.297Z,99064.59
2023-12-04T09:53:28.227Z,99048.06
2023-12-04T09:56:00.862Z,99038.69
2023-12-04T09:58:33.443Z,99041.16
2023-12-04T10:01:02.156Z,99020.09
2023-12-04T10:03:30.970Z,99035.16
2023-12-04T10:05:58.449Z,99028.28
2023-12-04T10:08:25.082Z,99032.56
2023-12-04T10:10:51.683Z,99036.03
2023-12-04T10:13:55.191Z,99013.19
2023-12-04T10:16:05.547Z,99035.25
2023-12-04T10:18:33.090Z,99029.97
2023-12-04T10:21:00.786Z,99009.28
2023-12-04T10:23:40.635Z,99021.38
2023-12-04T10:26:08.629Z,99011.81
2023-12-04T10:28:36.791Z,98995.38
2023-12-04T10:31:03.950Z,98993.69
2023-12-04T10:33:32.089Z,99004.94
2023-12-04T10:36:01.448Z,98984.63
2023-12-04T10:38:28.645Z,98998.25
2023-12-04T10:40:55.150Z,99005.00
2023-12-04T10:43:23.287Z,98983.91
2023-12-04T10:45:50.845Z,99005.19
2023-12-04T10:48:19.785Z,99005.06
2023-12-04T10:50:48.474Z,99008.50
2023-12-04T10:53:16.742Z,98994.09
2023-12-04T10:55:44.149Z,99003.38
2023-12-04T10:58:12.924Z,98999.00
2023-12-04T11:00:46.767Z,98993.81
2023-12-04T11:03:24.227Z,98980.06
2023-12-04T11:05:56.906Z,98995.50
2023-12-04T11:08:24.534Z,98948.53
2023-12-04T11:11:10.435Z,98958.50
2023-12-04T11:13:46.954Z,98941.03
2023-12-04T11:16:20.941Z,98947.25
2023-12-04T11:19:02.934Z,98963.38
2023-12-04T11:21:33.392Z,98946.13
2023-12-04T11:24:00.741Z,98931.47
2023-12-04T11:26:28.339Z,98934.75
2023-12-04T11:28:56.037Z,98928.75
2023-12-04T11:31:23.392Z,98910.66
2023-12-04T11:33:49.981Z,98915.59
2023-12-04T11:36:17.262Z,98912.16
2023-12-04T11:38:48.602Z,98908.75
2023-12-04T11:41:23.186Z,98902.09
2023-12-04T11:43:55.844Z,98919.97
2023-12-04T11:46:29.895Z,98906.69
2023-12-04T11:48:58.556Z,98908.22
2023-12-04T11:51:40.749Z,98927.78
2023-12-04T11:54:11.748Z,98913.13
2023-12-04T11:56:38.405Z,98907.84
2023-12-04T11:59:07.257Z,98900.25
2023-12-04T12:01:40.851Z,98900.91
2023-12-04T12:04:09.011Z,98895.63
2023-12-04T12:06:36.148Z,98881.19
2023-12-04T12:09:02.927Z,98882.53
2023-12-04T12:11:29.545Z,98872.13
2023-12-04T12:13:56.371Z,98862.63
2023-12-04T12:16:23.297Z,98850.59
2023-12-04T12:18:50.175Z,98850.44
2023-12-04T12:21:17.344Z,98844.50
2023-12-04T12:23:44.760Z,98834.00
2023-12-04T12:26:12.412Z,98821.28
2023-12-04T12:28:39.049Z,98817.63
2023-12-04T12:31:06.609Z,98800.38
2023-12-04T12:33:33.536Z,98798.69
2023-12-04T12:36:03.720Z,98798.47
2023-12-04T12:38:41.041Z,98798.63
2023-12-04T12:41:09.526Z,98791.59
2023-12-04T12:43:36.414Z,98781.53
2023-12-04T12:46:06.824Z,98788.22
2023-12-04T12:48:33.697Z,98785.75
2023-12-04T12:51:00.412Z,98771.88
2023-12-04T12:53:26.984Z,98776.03
2023-12-04T12:55:53.454Z,98759.50
2023-12-04T12:58:22.037Z,98741.44
2023-12-04T13:00:49.594Z,98750.84
2023-12-04T13:03:20.640Z,98749.78
2023-12-04T13:05:48.831Z,98741.16
2023-12-04T13:08:18.472Z,98741.06
2023-12-04T13:10:45.108Z,98717.03
2023-12-04T13:13:12.947Z,98736.72
2023-12-04T13:15:39.605Z,98723.84
2023-12-04T13:18:06.258Z,98710.75
2023-12-04T13:20:32.792Z,98703.94
2023-12-04T13:22:59.352Z,98706.69
2023-12-04T13:25:28.966Z,98702.19
2023-12-04T13:27:57.063Z,98700.44
2023-12-04T13:30:23.694Z,98696.38
2023-12-04T13:32:51.790Z,98711.75
2023-12-04T13:35:19.652Z,98705.53
2023-12-04T13:37:46.640Z,98703.72
2023-12-04T13:40:17.689Z,98669.78
2023-12-04T13:43:02.894Z,98687.41
2023-12-04T13:45:29.476Z,98688.16
2023-12-04T13:47:56.066Z,98662.81
2023-12-04T13:50:22.685Z,98682.13
2023-12-04T13:52:56.659Z,98660.47
2023-12-04T13:55:37.771Z,98664.59
2023-12-04T13:58:04.757Z,98661.84
2023-12-04T14:00:31.438Z,98646.44
2023-12-04T14:03:05.821Z,98641.59
2023-12-04T14:05:33.285Z,98623.78
2023-12-04T14:08:00.238Z,98623.41
2023-12-04T14:10:27.852Z,98627.41
2023-12-04T14:12:57.084Z,98627.13
2023-12-04T14:15:24.824Z,98624.97
2023-12-04T14:17:52.521Z,98608.19
2023-12-04T14:20:19.417Z,98615.41
2023-12-04T14:22:47.373Z,98614.66
2023-12-04T14:25:14.093Z,98611.59
2023-12-04T14:27:46.009Z,98618.25
2023-12-04T14:30:13.007Z,98615.97
2023-12-04T14:32:47.126Z,98615.13
2023-12-04T14:35:16.256Z,98617.09
2023-12-04T14:37:43.223Z,98605.09
2023-12-04T14:40:10.225Z,98589.06
2023-12-04T14:42:37.460Z,98579.34
2023-12-04T14:45:04.228Z,98593.84
2023-12-04T14:47:30.827Z,98607.72
2023-12-04T14:49:57.485Z,98598.50
2023-12-04T14:52:24.442Z,98592.28
2023-12-04T14:55:13.999Z,98578.78
2023-12-04T14:57:40.671Z,98583.00
2023-12-04T15:00:10.641Z,98585.72
2023-12-04T15:02:57.063Z,98579.59
2023-12-04T15:05:39.325Z,98576.97
2023-12-04T15:08:24.682Z,98566.69
2023-12-04T15:11:03.122Z,98578.53
2023-12-04T15:13:32.267Z,98594.81
2023-12-04T15:16:14.227Z,98588.69
2023-12-04T15:18:53.505Z,98585.94
2023-12-04T15:21:20.180Z,98592.66
2023-12-04T15:23:46.688Z,98583.53
2023-12-04T15:26:13.280Z,98594.56
2023-12-04T15:28:39.948Z,98588.78
2023-12-04T15:31:06.782Z,98578.53
2023-12-04T15:33:33.261Z,98588.19
2023-12-04T15:36:00.704Z,98583.41
2023-12-04T15:38:27.352Z,98563.41
2023-12-04T15:40:56.210Z,98564.16
2023-12-04T15:43:23.498Z,98558.88
2023-12-04T15:45:50.106Z,98556.34
2023-12-04T15:48:16.859Z,98572.03
2023-12-04T15:50:44.141Z,98561.69
2023-12-04T15:53:10.746Z,98552.47
2023-12-04T15:55:37.250Z,98534.06
2023-12-04T15:58:03.812Z,98526.59
2023-12-04T16:00:30.405Z,98538.34
2023-12-04T16:02:57.021Z,98533.41
2023-12-04T16:05:24.553Z,98536.25
2023-12-04T16:07:51.212Z,98551.06
2023-12-04T16:10:17.822Z,98535.13
2023-12-04T16:12:44.667Z,98528.09
2023-12-04T16:15:11.507Z,98525.56
2023-12-04T16:17:39.718Z,98504.41
2023-12-04T16:20:12.473Z,98523.97
2023-12-04T16:22:41.651Z,98527.97
2023-12-04T16:25:08.720Z,98519.69
2023-12-04T16:27:35.308Z,98501.63
2023-12-04T16:30:02.584Z,98517.75
2023-12-04T16:32:29.197Z,98509.38
2023-12-04T16:34:56.240Z,98503.72
2023-12-04T16:37:23.504Z,98502.56
2023-12-04T16:39:50.171Z,98506.19
2023-12-04T16:42:16.833Z,98498.53
2023-12-04T16:44:43.424Z,98488.38
2023-12-04T16:47:09.938Z,98484.19
2023-12-04T16:49:36.658Z,98468.25
2023-12-04T16:52:03.477Z,98468.16
2023-12-04T16:54:30.074Z,98468.16
2023-12-04T16:56:56.606Z,98451.78
2023-12-04T16:59:23.244Z,98461.63
2023-12-04T17:01:49.834Z,98464.56
2023-12-04T17:04:16.585Z,98462.78
2023-12-04T17:06:43.939Z,98461.50
2023-12-04T17:09:16.099Z,98454.47
2023-12-04T17:11:43.534Z,98459.19
2023-12-04T17:14:10.155Z,98454.97
2023-12-04T17:16:36.752Z,98443.97
2023-12-04T17:19:03.450Z,98451.75
2023-12-04T17:21:30.047Z,98444.91
2023-12-04T17:23:56.613Z,98438.84
2023-12-04T17:26:23.089Z,98432.03
2023-12-04T17:28:49.603Z,98427.09
2023-12-04T17:31:19.677Z,98431.50
2023-12-04T17:33:47.408Z,98430.56
2023-12-04T17:36:14.183Z,98428.16
2023-12-04T17:38:42.547Z,98419.66
2023-12-04T17:41:11.265Z,98417.25
2023-12-04T17:43:37.899Z,98430.44
2023-12-04T17:46:05.184Z,98412.38
2023-12-04T17:48:32.040Z,98416.78
2023-12-04T17:50:58.564Z,98398.13
2023-12-04T17:53:25.150Z,98409.34
2023-12-04T17:55:51.714Z,98392.19
2023-12-04T17:58:18.251Z,98399.00
2023-12-04T18:00:45.129Z,98397.41
2023-12-04T18:03:11.892Z,98391.25
2023-12-04T18:05:38.562Z,98386.19
2023-12-04T18:08:05.345Z,98387.25
2023-12-04T18:10:32.596Z,98360.31
2023-12-04T18:12:59.159Z,98377.09
2023-12-04T18:15:25.824Z,98376.34
2023-12-04T18:17:52.588Z,98351.09
2023-12-04T18:20:19.929Z,98361.72
2023-12-04T18:22:51.882Z,98356.50
2023-12-04T18:25:20.307Z,98356.84
2023-12-04T18:27:47.021Z,98337.56
2023-12-04T18:30:17.312Z,98359.59
2023-12-04T18:32:44.410Z,98356.03
2023-12-04T18:35:11.769Z,98344.94
2023-12-04T18:38:12.348Z,98356.22
2023-12-04T18:40:39.179Z,98350.34
2023-12-04T18:43:07.493Z,98332.56
2023-12-04T18:45:35.623Z,98342.50
2023-12-04T18:48:09.200Z,98341.78
2023-12-04T18:50:38.529Z,98341.97
2023-12-04T18:53:05.487Z,98334.34
2023-12-04T18:55:32.125Z,98338.69
2023-12-04T18:57:58.689Z,98330.88
2023-12-04T19:00:26.065Z,98339.66
2023-12-04T19:02:53.951Z,98334.59
2023-12-04T19:05:21.719Z,98322.91
2023-12-04T19:07:48.432Z,98323.53
2023-12-04T19:10:15.056Z,98307.69
2023-12-04T19:12:41.733Z,98327.38
2023-12-04T19:15:11.137Z,98321.13
2023-12-04T19:17:38.049Z,98320.47
2023-12-04T19:20:05.814Z,98313.66
2023-12-04T19:22:32.715Z,98316.84
2023-12-04T19:24:59.302Z,98296.41
2023-12-04T19:27:25.903Z,98299.22
2023-12-04T19:29:52.828Z,98310.22
2023-12-04T19:32:21.593Z,98304.16
2023-12-04T19:34:49.574Z,98304.44
2023-12-04T19:37:16.140Z,98311.34
2023-12-04T19:39:43.095Z,98301.94
2023-12-04T19:42:09.855Z,98301.84
2023-12-04T19:44:36.481Z,98297.75
2023-12-04T19:47:03.011Z,98299.41
2023-12-04T19:49:30.816Z,98295.41
2023-12-04T19:51:57.453Z,98299.41
2023-12-04T19:54:24.221Z,98293.53
2023-12-04T19:56:50.829Z,98293.53
2023-12-04T19:59:17.384Z,98295.53
2023-12-04T20:01:44.476Z,98302.41
2023-12-04T20:04:11.008Z,98302.31
2023-12-04T20:06:37.948Z,98309.31
2023-12-04T20:09:05.906Z,98297.56
2023-12-04T20:11:33.327Z,98296.44
2023-12-04T20:13:59.812Z,98289.66
2023-12-04T20:16:28.930Z,98294.94
2023-12-04T20:18:55.763Z,98301.00
2023-12-04T20:21:22.889Z,98290.97
2023-12-04T20:23:49.432Z,98296.72
2023-12-04T20:26:15.990Z,98275.22
2023-12-04T20:28:42.937Z,98286.75
2023-12-04T20:31:09.465Z,98286.75
2023-12-04T20:33:36.595Z,98290.97
2023-12-04T20:36:08.577Z,98283.25
2023-12-04T20:38:35.675Z,98280.69
2023-12-04T20:41:02.246Z,98260.59
2023-12-04T20:43:29.718Z,98282.41
2023-12-04T20:45:56.371Z,98268.78
2023-12-04T20:48:23.028Z,98281.66
2023-12-04T20:50:51.283Z,98271.22
2023-12-04T20:53:17.889Z,98273.91
2023-12-04T20:55:46.908Z,98269.81
2023-12-04T20:58:13.739Z,98278.19
2023-12-04T21:00:42.950Z,98275.69
2023-12-04T21:03:10.705Z,98268.13
2023-12-04T21:05:37.597Z,98249.59
2023-12-04T21:08:04.710Z,98273.34
2023-12-04T21:10:31.431Z,98274.22
2023-12-04T21:12:58.288Z,98261.25
2023-12-04T21:15:25.454Z,98265.63
2023-12-04T21:17:52.322Z,98272.50
2023-12-04T21:20:21.536Z,98250.16
2023-12-04T21:22:48.127Z,98251.19
2023-12-04T21:25:14.691Z,98235.25
2023-12-04T21:27:41.620Z,98259.75
2023-12-04T21:30:11.380Z,98254.72
2023-12-04T21:32:38.144Z,98246.34
2023-12-04T21:35:05.872Z,98232.75
2023-12-04T21:37:32.448Z,98243.66
2023-12-04T21:39:59.591Z,98236.44
2023-12-04T21:42:26.685Z,98236.38
2023-12-04T21:44:53.269Z,98237.38
2023-12-04T21:47:19.867Z,98239.28
2023-12-04T21:49:46.793Z,98237.78
2023-12-04T21:52:13.498Z,98225.69
2023-12-04T21:54:40.198Z,98220.47
2023-12-04T21:57:06.742Z,98224.63
2023-12-04T21:59:33.657Z,98215.13
2023-12-04T22:02:00.308Z,98218.59
2023-12-04T22:04:27.077Z,98216.25
2023-12-04T22:06:53.850Z,98219.53
2023-12-04T22:09:23.140Z,98213.56
2023-12-04T22:11:51.509Z,98200.72
2023-12-04T22:14:18.536Z,98196.41
2023-12-04T22:16:45.045Z,98200.63
2023-12-04T22:19:11.778Z,98211.69
2023-12-04T22:21:38.358Z,98210.94
2023-12-04T22:24:05.761Z,98211.88
2023-12-04T22:26:32.730Z,98214.38
2023-12-04T22:28:59.370Z,98205.81
2023-12-04T22:31:25.994Z,98204.06
2023-12-04T22:33:52.571Z,98200.72
2023-12-04T22:36:19.222Z,98194.75
2023-12-04T22:38:45.795Z,98176.31
2023-12-04T22:41:12.353Z,98194.75
2023-12-04T22:43:39.872Z,98184.72
2023-12-04T22:46:09.977Z,98193.06
2023-12-04T22:48:38.508Z,98193.06
2023-12-04T22:51:08.516Z,98193.16
2023-12-04T22:53:35.485Z,98189.63
2023-12-04T22:56:02.068Z,98191.31
2023-12-04T22:58:28.657Z,98197.75
2023-12-04T23:00:55.818Z,98195.13
2023-12-04T23:03:22.607Z,98196.81
2023-12-04T23:05:49.885Z,98185.00
2023-12-04T23:08:18.623Z,98181.81
2023-12-04T23:10:45.588Z,98188.44
2023-12-04T23:13:13.002Z,98193.38
2023-12-04T23:15:39.783Z,98188.44
2023-12-04T23:18:06.540Z,98188.44
2023-12-04T23:20:33.090Z,98189.94
2023-12-04T23:22:59.591Z,98192.59
2023-12-04T23:25:26.203Z,98166.44
2023-12-04T23:27:52.757Z,98179.66
2023-12-04T23:30:20.032Z,98172.31
2023-12-04T23:32:46.823Z,98157.06
2023-12-04T23:35:13.465Z,98173.16
2023-12-04T23:37:40.116Z,98178.91
2023-12-04T23:40:07.079Z,98170.25
2023-12-04T23:42:33.706Z,98172.78
2023-12-04T23:45:00.511Z,98162.53
2023-12-04T23:47:27.050Z,98160.94
2023-12-04T23:49:54.114Z,98157.69
2023-12-04T23:52:20.560Z,98170.25
2023-12-04T23:54:47.162Z,98149.97
2023-12-04T23:57:13.770Z,98147.25
2023-12-04T23:59:40.339Z,98154.81
